| time (UTC) | temp C | wind direction | speed KPH | gust KPH | rain 1hr cm | rain 24hr cm | rain mn cm | humidity % | barometer mb |
| 20260508133015 | 19 | 205 | 12.9 | 41.8 | 0.00 | 0.00 | 0.00 | 57 | 1008.1 |
| 20260508132056 | 20 | 202 | 11.3 | 24.1 | 0.00 | 0.00 | 0.00 | 55 | 1007.9 |
| 20260508131032 | 19 | 181 | 11.3 | 22.5 | 0.00 | 0.00 | 0.00 | 57 | 1007.9 |
| 20260508130050 | 19 | 203 | 9.7 | 17.7 | 0.00 | 0.00 | 0.00 | 60 | 1008.1 |
| 20260508125210 | 19 | 194 | 11.3 | 22.5 | 0.00 | 0.00 | 0.00 | 61 | 1008.2 |
| 20260508124027 | 19 | 183 | 12.9 | 24.1 | 0.00 | 0.00 | 0.00 | 59 | 1008.4 |
| 20260508123045 | 18 | 190 | 11.3 | 25.7 | 0.00 | 0.00 | 0.00 | 61 | 1008.5 |
| 20260508122023 | 18 | 236 | 12.9 | 16.1 | 0.00 | 0.00 | 0.00 | 64 | 1008.8 |
| 20260508120527 | 18 | 213 | 8.0 | 16.1 | 0.00 | 0.00 | 0.00 | 65 | 1008.9 |
| 20260508115525 | 18 | 193 | 11.3 | 27.4 | 0.00 | 0.00 | 0.00 | 65 | 1009.1 |
| 20260508114544 | 18 | 203 | 11.3 | 22.5 | 0.00 | 0.00 | 0.00 | 64 | 1009.3 |
| 20260508113522 | 18 | 187 | 12.9 | 22.5 | 0.00 | 0.00 | 0.00 | 64 | 1009.3 |
| 20260508112520 | 18 | 169 | 11.3 | 20.9 | 0.00 | 0.00 | 0.00 | 67 | 1009.3 |
| 20260508111518 | 18 | 203 | 11.3 | 24.1 | 0.00 | 0.00 | 0.00 | 63 | 1009.4 |
| 20260508110536 | 18 | 205 | 8.0 | 14.5 | 0.00 | 0.00 | 0.00 | 60 | 1009.3 |
| 20260508105534 | 18 | 228 | 6.4 | 12.9 | 0.00 | 0.00 | 0.00 | 62 | 1009.4 |
| 20260508104533 | 18 | 199 | 11.3 | 22.5 | 0.00 | 0.00 | 0.00 | 63 | 1009.5 |
| 20260508103531 | 17 | 219 | 8.0 | 24.1 | 0.00 | 0.00 | 0.00 | 64 | 1009.5 |
| 20260508102529 | 17 | 207 | 8.0 | 20.9 | 0.00 | 0.00 | 0.00 | 63 | 1009.6 |
| 20260508101528 | 18 | 202 | 8.0 | 24.1 | 0.00 | 0.00 | 0.00 | 63 | 1009.5 |
| 20260508100525 | 17 | 218 | 8.0 | 17.7 | 0.00 | 0.00 | 0.00 | 65 | 1009.6 |
| 20260508095524 | 17 | 210 | 8.0 | 20.9 | 0.00 | 0.00 | 0.00 | 69 | 1009.6 |
| 20260508094522 | 17 | 204 | 6.4 | 14.5 | 0.00 | 0.00 | 0.00 | 68 | 1009.7 |
| 20260508093540 | 16 | 231 | 8.0 | 20.9 | 0.00 | 0.00 | 0.00 | 70 | 1009.8 |
| 20260508092519 | 16 | 215 | 4.8 | 14.5 | 0.00 | 0.00 | 0.00 | 72 | 1009.8 |
| 20260508091517 | 16 | 230 | 4.8 | 11.3 | 0.00 | 0.00 | 0.00 | 73 | 1010.0 |
| 20260508090535 | 16 | 173 | 8.0 | 16.1 | 0.00 | 0.00 | 0.00 | 73 | 1009.9 |
| 20260508085553 | 15 | 235 | 8.0 | 17.7 | 0.00 | 0.00 | 0.00 | 74 | 1010.0 |
| 20260508084551 | 15 | 192 | 4.8 | 12.9 | 0.00 | 0.00 | 0.00 | 76 | 1009.9 |
| 20260508083550 | 15 | 185 | 6.4 | 11.3 | 0.00 | 0.00 | 0.00 | 77 | 1009.9 |
| 20260508082548 | 15 | 197 | 6.4 | 11.3 | 0.00 | 0.00 | 0.00 | 79 | 1009.9 |
| 20260508081526 | 15 | 187 | 4.8 | 11.3 | 0.00 | 0.00 | 0.00 | 80 | 1010.0 |
| 20260508080524 | 14 | 207 | 4.8 | 9.7 | 0.00 | 0.00 | 0.00 | 82 | 1010.0 |
| 20260508075523 | 14 | 188 | 6.4 | 9.7 | 0.00 | 0.00 | 0.00 | 81 | 1009.9 |
| 20260508074521 | 14 | 207 | 3.2 | 6.4 | 0.00 | 0.00 | 0.00 | 81 | 1010.0 |
| 20260508073519 | 13 | 202 | 3.2 | 11.3 | 0.00 | 0.00 | 0.00 | 84 | 1009.9 |
| 20260508072517 | 13 | 240 | 3.2 | 4.8 | 0.00 | 0.00 | 0.00 | 86 | 1009.9 |
| 20260508071515 | 13 | 184 | 3.2 | 6.4 | 0.00 | 0.00 | 0.00 | 88 | 1009.8 |
| 20260508070533 | 13 | 208 | 3.2 | 6.4 | 0.00 | 0.00 | 0.00 | 89 | 1009.8 |
| 20260508065532 | 12 | 221 | 3.2 | 6.4 | 0.00 | 0.00 | 0.00 | 90 | 1009.7 |
| 20260508064530 | 12 | 244 | 0.0 | 3.2 | 0.00 | 0.00 | 0.00 | 90 | 1009.7 |
| 20260508063548 | 12 | 250 | 0.0 | 1.6 | 0.00 | 0.00 | 0.00 | 91 | 1009.7 |
| 20260508062526 | 12 | 231 | 1.6 | 3.2 | 0.00 | 0.00 | 0.00 | 91 | 1009.7 |
| 20260508061544 | 12 | 234 | 1.6 | 3.2 | 0.00 | 0.00 | 0.00 | 91 | 1009.6 |
| 20260508060523 | 12 | 232 | 1.6 | 3.2 | 0.00 | 0.00 | 0.00 | 92 | 1009.5 |
| 20260508055521 | 12 | 249 | 0.0 | 1.6 | 0.00 | 0.00 | 0.00 | 92 | 1009.4 |
| 20260508054519 | 12 | 243 | 0.0 | 3.2 | 0.00 | 0.00 | 0.00 | 92 | 1009.3 |
| 20260508053518 | 12 | 211 | 1.6 | 3.2 | 0.00 | 0.00 | 0.00 | 92 | 1009.2 |
| 20260508052535 | 12 | 229 | 1.6 | 3.2 | 0.00 | 0.00 | 0.00 | 93 | 1009.2 |
| 20260508051554 | 12 | 232 | 1.6 | 3.2 | 0.00 | 0.00 | 0.00 | 92 | 1009.1 |
| 20260508050532 | 12 | 238 | 0.0 | 3.2 | 0.00 | 0.00 | 0.00 | 92 | 1008.9 |
| 20260508045530 | 12 | 241 | 1.6 | 3.2 | 0.00 | 0.00 | 0.00 | 92 | 1008.8 |
| 20260508044549 | 12 | 235 | 1.6 | 4.8 | 0.00 | 0.00 | 0.00 | 91 | 1008.9 |
| 20260508043527 | 12 | 227 | 4.8 | 11.3 | 0.00 | 0.00 | 0.00 | 88 | 1009.0 |
| 20260508042525 | 13 | 234 | 1.6 | 9.7 | 0.00 | 0.00 | 0.00 | 82 | 1009.0 |
| 20260508041523 | 13 | 233 | 0.0 | 1.6 | 0.00 | 0.00 | 0.00 | 82 | 1009.0 |
| 20260508040521 | 13 | 236 | 0.0 | 1.6 | 0.00 | 0.00 | 0.00 | 81 | 1009.0 |
| 20260508035539 | 13 | 241 | 0.0 | 1.6 | 0.00 | 0.00 | 0.00 | 81 | 1009.1 |
| 20260508034517 | 13 | 243 | 0.0 | 3.2 | 0.00 | 0.00 | 0.00 | 82 | 1009.1 |
| 20260508033515 | 13 | 231 | 1.6 | 3.2 | 0.00 | 0.00 | 0.00 | 82 | 1009.2 |
| 20260508032534 | 13 | 231 | 1.6 | 3.2 | 0.00 | 0.00 | 0.00 | 82 | 1009.0 |
| 20260508031532 | 13 | 232 | 1.6 | 1.6 | 0.00 | 0.00 | 0.00 | 81 | 1009.1 |
| 20260508030530 | 13 | 236 | 0.0 | 1.6 | 0.00 | 0.00 | 0.00 | 81 | 1009.0 |
| 20260508025529 | 12 | 234 | 0.0 | 1.6 | 0.00 | 0.00 | 0.00 | 81 | 1009.1 |
| 20260508024527 | 13 | 242 | 0.0 | 1.6 | 0.00 | 0.00 | 0.00 | 81 | 1009.2 |
| 20260508023525 | 13 | 213 | 1.6 | 9.7 | 0.00 | 0.00 | 0.00 | 81 | 1009.4 |
| 20260508022523 | 13 | 234 | 1.6 | 3.2 | 0.00 | 0.00 | 0.00 | 82 | 1009.5 |
| 20260508021521 | 13 | 229 | 1.6 | 3.2 | 0.00 | 0.00 | 0.00 | 82 | 1009.5 |
| 20260508020539 | 12 | 234 | 1.6 | 3.2 | 0.00 | 0.00 | 0.00 | 82 | 1009.5 |
| 20260508015517 | 13 | 233 | 1.6 | 3.2 | 0.00 | 0.00 | 0.00 | 81 | 1009.7 |
| 20260508014516 | 13 | 234 | 0.0 | 1.6 | 0.00 | 0.00 | 0.00 | 81 | 1009.8 |
| 20260508013534 | 13 | 233 | 1.6 | 3.2 | 0.00 | 0.00 | 0.00 | 81 | 1009.8 |
| 20260508012532 | 13 | 229 | 0.0 | 1.6 | 0.00 | 0.00 | 0.00 | 81 | 1009.9 |
| 20260508011550 | 13 | 227 | 1.6 | 3.2 | 0.00 | 0.00 | 0.00 | 82 | 1010.2 |
| 20260508010548 | 13 | 235 | 1.6 | 9.7 | 0.00 | 0.00 | 0.00 | 82 | 1010.2 |
| 20260508005527 | 13 | 234 | 1.6 | 6.4 | 0.00 | 0.00 | 0.00 | 82 | 1010.4 |
| 20260508004525 | 13 | 240 | 0.0 | 1.6 | 0.00 | 0.00 | 0.00 | 82 | 1010.2 |
| 20260508003523 | 13 | 231 | 0.0 | 1.6 | 0.00 | 0.00 | 0.00 | 82 | 1010.3 |
| 20260508002541 | 13 | 233 | 1.6 | 6.4 | 0.00 | 0.00 | 0.00 | 82 | 1010.4 |
| 20260508001519 | 13 | 232 | 1.6 | 4.8 | 0.00 | 0.00 | 0.00 | 81 | 1010.4 |
| 20260508000518 | 13 | 242 | 1.6 | 3.2 | 0.00 | 0.00 | 0.00 | 80 | 1010.3 |
| 20260507235516 | 13 | 232 | 1.6 | 1.6 | 0.00 | 0.00 | 0.00 | 80 | 1010.4 |
| 20260507234534 | 13 | 234 | 0.0 | 1.6 | 0.00 | 0.00 | 0.00 | 80 | 1010.3 |
| 20260507233533 | 13 | 236 | 0.0 | 3.2 | 0.00 | 0.00 | 0.00 | 80 | 1010.6 |
| 20260507232530 | 13 | 231 | 3.2 | 4.8 | 0.00 | 0.00 | 0.00 | 80 | 1010.7 |
| 20260507231529 | 13 | 233 | 1.6 | 3.2 | 0.00 | 0.00 | 0.00 | 80 | 1010.5 |
| 20260507230527 | 13 | 232 | 1.6 | 3.2 | 0.00 | 0.00 | 0.00 | 79 | 1010.6 |
| 20260507225605 | 13 | 236 | 1.6 | 3.2 | 0.00 | 0.00 | 0.00 | 78 | 1010.6 |
| 20260507224523 | 14 | 237 | 0.0 | 1.6 | 0.00 | 0.00 | 0.00 | 76 | 1010.7 |
| 20260507223541 | 14 | 272 | 0.0 | 1.6 | 0.00 | 0.00 | 0.00 | 76 | 1010.7 |
| 20260507222519 | 14 | 275 | 0.0 | 1.6 | 0.00 | 0.00 | 0.00 | 76 | 1010.9 |
| 20260507221538 | 14 | 246 | 0.0 | 1.6 | 0.00 | 0.00 | 0.00 | 76 | 1011.0 |
| 20260507220516 | 14 | 287 | 1.6 | 3.2 | 0.00 | 0.00 | 0.00 | 76 | 1011.1 |
| 20260507215614 | 14 | 263 | 0.0 | 3.2 | 0.00 | 0.00 | 0.00 | 76 | 1011.2 |
| 20260507214532 | 15 | 252 | 0.0 | 3.2 | 0.00 | 0.00 | 0.00 | 75 | 1011.1 |
| 20260507213530 | 14 | 283 | 1.6 | 4.8 | 0.00 | 0.00 | 0.00 | 75 | 1011.2 |
| 20260507212529 | 15 | 290 | 1.6 | 6.4 | 0.00 | 0.00 | 0.00 | 74 | 1011.3 |
| 20260507211527 | 14 | 252 | 1.6 | 3.2 | 0.00 | 0.00 | 0.00 | 76 | 1011.4 |
| 20260507210525 | 14 | 238 | 1.6 | 4.8 | 0.00 | 0.00 | 0.00 | 76 | 1011.7 |
| 20260507205523 | 14 | 277 | 1.6 | 6.4 | 0.00 | 0.00 | 0.00 | 76 | 1011.5 |
| 20260507204521 | 15 | 284 | 1.6 | 4.8 | 0.00 | 0.00 | 0.00 | 75 | 1011.5 |
| 20260507203520 | 15 | 273 | 3.2 | 6.4 | 0.00 | 0.00 | 0.00 | 75 | 1011.4 |
| 20260507202518 | 15 | 311 | 3.2 | 6.4 | 0.00 | 0.00 | 0.00 | 75 | 1011.3 |
| 20260507201516 | 15 | 279 | 1.6 | 4.8 | 0.00 | 0.00 | 0.00 | 75 | 1011.2 |
| 20260507200534 | 15 | 310 | 3.2 | 6.4 | 0.00 | 0.00 | 0.00 | 75 | 1011.1 |
| 20260507195532 | 15 | 299 | 3.2 | 9.7 | 0.00 | 0.00 | 0.00 | 74 | 1011.0 |
| 20260507194530 | 15 | 310 | 4.8 | 11.3 | 0.00 | 0.00 | 0.00 | 72 | 1010.9 |
| 20260507193528 | 15 | 312 | 3.2 | 9.7 | 0.00 | 0.00 | 0.00 | 72 | 1011.0 |
| 20260507192527 | 15 | 299 | 4.8 | 12.9 | 0.00 | 0.00 | 0.00 | 71 | 1011.0 |
| 20260507191525 | 15 | 281 | 4.8 | 11.3 | 0.00 | 0.00 | 0.00 | 71 | 1010.9 |
| 20260507190543 | 15 | 308 | 4.8 | 12.9 | 0.00 | 0.00 | 0.00 | 69 | 1010.8 |
| 20260507185521 | 15 | 306 | 6.4 | 11.3 | 0.00 | 0.00 | 0.00 | 70 | 1010.6 |
| 20260507184519 | 15 | 293 | 3.2 | 9.7 | 0.00 | 0.00 | 0.00 | 69 | 1010.7 |
| 20260507183518 | 16 | 308 | 6.4 | 20.9 | 0.00 | 0.00 | 0.00 | 68 | 1010.6 |
| 20260507182516 | 16 | 306 | 3.2 | 9.7 | 0.00 | 0.00 | 0.00 | 68 | 1010.7 |
| 20260507181554 | 16 | 305 | 6.4 | 16.1 | 0.00 | 0.00 | 0.00 | 62 | 1010.7 |
| 20260507180612 | 16 | 296 | 3.2 | 12.9 | 0.00 | 0.00 | 0.00 | 67 | 1010.5 |
| 20260507175531 | 16 | 315 | 6.4 | 14.5 | 0.00 | 0.00 | 0.00 | 69 | 1010.6 |
| 20260507174529 | 16 | 276 | 4.8 | 16.1 | 0.00 | 0.00 | 0.00 | 68 | 1010.4 |
| 20260507173527 | 16 | 293 | 3.2 | 11.3 | 0.00 | 0.00 | 0.00 | 66 | 1010.5 |
| 20260507172525 | 17 | 322 | 3.2 | 11.3 | 0.00 | 0.00 | 0.00 | 64 | 1010.5 |
| 20260507171543 | 16 | 286 | 3.2 | 11.3 | 0.00 | 0.00 | 0.00 | 65 | 1010.5 |
| 20260507170521 | 17 | 304 | 4.8 | 14.5 | 0.00 | 0.00 | 0.00 | 64 | 1010.4 |
| 20260507165520 | 17 | 303 | 3.2 | 12.9 | 0.00 | 0.00 | 0.00 | 64 | 1010.5 |
| 20260507164518 | 17 | 304 | 3.2 | 11.3 | 0.00 | 0.00 | 0.00 | 67 | 1010.6 |
| 20260507163516 | 17 | 302 | 6.4 | 12.9 | 0.00 | 0.00 | 0.00 | 64 | 1010.5 |
| 20260507162535 | 17 | 302 | 4.8 | 17.7 | 0.00 | 0.00 | 0.00 | 67 | 1010.4 |
| 20260507161533 | 18 | 303 | 4.8 | 16.1 | 0.00 | 0.00 | 0.00 | 65 | 1010.5 |
| 20260507160531 | 17 | 304 | 6.4 | 17.7 | 0.00 | 0.00 | 0.00 | 66 | 1010.6 |
| 20260507155529 | 17 | 310 | 6.4 | 16.1 | 0.00 | 0.00 | 0.00 | 64 | 1010.5 |
| 20260507154527 | 18 | 290 | 3.2 | 12.9 | 0.00 | 0.00 | 0.00 | 62 | 1010.5 |
| 20260507153545 | 18 | 251 | 4.8 | 11.3 | 0.00 | 0.00 | 0.00 | 61 | 1010.4 |
| 20260507152523 | 18 | 292 | 4.8 | 12.9 | 0.00 | 0.00 | 0.00 | 64 | 1010.5 |
| 20260507151522 | 18 | 327 | 6.4 | 20.9 | 0.00 | 0.00 | 0.00 | 62 | 1010.6 |
| 20260507150521 | 17 | 281 | 4.8 | 16.1 | 0.00 | 0.00 | 0.00 | 64 | 1010.7 |
| 20260507145520 | 17 | 293 | 6.4 | 22.5 | 0.00 | 0.00 | 0.00 | 65 | 1010.7 |
| 20260507144536 | 17 | 305 | 6.4 | 17.7 | 0.00 | 0.00 | 0.00 | 65 | 1010.8 |
| 20260507143554 | 17 | 283 | 4.8 | 14.5 | 0.00 | 0.00 | 0.00 | 65 | 1010.9 |
| 20260507142532 | 18 | 314 | 8.0 | 17.7 | 0.00 | 0.00 | 0.00 | 65 | 1010.9 |
| 20260507141531 | 18 | 282 | 4.8 | 11.3 | 0.00 | 0.00 | 0.00 | 61 | 1010.9 |
| 20260507140550 | 18 | 276 | 6.4 | 16.1 | 0.00 | 0.00 | 0.00 | 63 | 1011.0 |
| 20260507135527 | 18 | 327 | 6.4 | 17.7 | 0.00 | 0.00 | 0.00 | 62 | 1011.0 |
| 20260507134547 | 19 | 317 | 4.8 | 16.1 | 0.00 | 0.00 | 0.00 | 62 | 1011.1 |
| 20260507133544 | 18 | 244 | 4.8 | 16.1 | 0.00 | 0.00 | 0.00 | 62 | 1011.1 |